Time;durP1;ratioP1;P1;durP2;ratioP2;P2;SDS_P1;SDS_P2;PMS_P1;PMS_P2;Temp;Humidity;BMP_temperature;BMP_pressure;BME280_temperature;BME280_humidity;BME280_pressure;Samples;Min_cycle;Max_cycle;Signal;HPM_P1;HPM_P2
2021/01/03 00:02:14;;;;;;;8.32;4.35;;;;;;;3.34;87.35;100655.31;5246485;28;20104;-81
2021/01/03 00:04:44;;;;;;;7.05;4.28;;;;;;;3.40;87.30;100659.59;5247737;28;20549;-81
2021/01/03 00:07:15;;;;;;;7.97;4.47;;;;;;;3.42;87.31;100661.31;5247528;28;20378;-81
2021/01/03 00:09:45;;;;;;;7.45;4.53;;;;;;;3.40;86.84;100664.75;5253982;28;20027;-81
2021/01/03 00:12:15;;;;;;;7.40;4.47;;;;;;;3.36;87.52;100663.06;5246985;28;20024;-81
2021/01/03 00:14:46;;;;;;;8.45;4.50;;;;;;;3.36;86.78;100660.50;5247841;28;20482;-81
2021/01/03 00:17:16;;;;;;;7.95;4.65;;;;;;;3.37;86.80;100663.03;5248225;28;20020;-81
2021/01/03 00:19:46;;;;;;;10.68;5.00;;;;;;;3.45;87.03;100663.88;5247697;28;20077;-81
2021/01/03 00:22:16;;;;;;;10.18;5.03;;;;;;;3.32;87.90;100658.75;5248464;28;20060;-81
2021/01/03 00:24:47;;;;;;;13.27;5.53;;;;;;;3.30;88.19;100658.78;5248262;28;20114;-81
2021/01/03 00:27:17;;;;;;;10.55;5.68;;;;;;;3.19;89.38;100659.72;5246132;28;20062;-81
2021/01/03 00:29:47;;;;;;;11.85;5.82;;;;;;;3.25;88.74;100657.09;5247667;28;20034;-81
2021/01/03 00:32:18;;;;;;;9.38;5.57;;;;;;;3.19;90.29;100660.56;5248290;28;20046;-81
2021/01/03 00:34:49;;;;;;;12.05;5.30;;;;;;;3.14;90.54;100651.13;5247372;28;20108;-81
2021/01/03 00:37:21;;;;;;;11.25;5.85;;;;;;;3.15;90.65;100656.28;5247568;28;20024;-81
2021/01/03 00:39:52;;;;;;;10.05;5.50;;;;;;;3.23;89.67;100653.66;5253636;28;20024;-81
2021/01/03 00:42:22;;;;;;;11.20;5.60;;;;;;;3.19;90.89;100659.72;5244971;28;20527;-81
2021/01/03 00:44:52;;;;;;;13.63;6.10;;;;;;;3.25;90.20;100644.19;5242623;28;20062;-81
2021/01/03 00:47:22;;;;;;;10.25;6.22;;;;;;;3.26;91.42;100645.91;5244262;28;20044;-81
2021/01/03 00:49:53;;;;;;;11.68;6.80;;;;;;;3.28;91.48;100642.44;5244190;28;20070;-81
2021/01/03 00:52:23;;;;;;;12.85;7.30;;;;;;;3.22;92.82;100649.38;5243041;28;20032;-81
2021/01/03 00:54:53;;;;;;;12.82;7.43;;;;;;;3.10;94.11;100652.88;5244694;28;20024;-81
2021/01/03 00:57:24;;;;;;;13.90;7.43;;;;;;;3.08;95.25;100658.88;5247833;28;20048;-81
2021/01/03 00:59:54;;;;;;;17.80;8.52;;;;;;;3.07;95.15;100652.88;5246617;28;20032;-81
2021/01/03 01:02:24;;;;;;;17.63;8.18;;;;;;;3.12;95.40;100655.44;5247217;28;20031;-81
2021/01/03 01:04:54;;;;;;;14.93;8.43;;;;;;;3.13;95.21;100657.13;5246181;28;20114;-81
2021/01/03 01:07:25;;;;;;;15.07;8.57;;;;;;;3.09;95.37;100658.91;5245530;28;20098;-81
2021/01/03 01:09:55;;;;;;;17.77;9.00;;;;;;;2.99;96.58;100656.38;5253250;28;20017;-81
2021/01/03 01:12:25;;;;;;;15.70;8.65;;;;;;;3.09;96.67;100658.91;5246758;28;20116;-81
2021/01/03 01:14:55;;;;;;;19.23;9.50;;;;;;;3.09;97.48;100660.59;5245606;28;20017;-81
2021/01/03 01:17:26;;;;;;;20.25;9.68;;;;;;;2.98;97.73;100660.66;5248068;28;20024;-81
2021/01/03 01:19:56;;;;;;;19.08;10.75;;;;;;;3.00;98.11;100664.09;5247758;28;20050;-81
2021/01/03 01:22:26;;;;;;;20.48;10.75;;;;;;;3.02;98.47;100672.69;5245724;28;20048;-81
2021/01/03 01:24:56;;;;;;;19.05;11.00;;;;;;;2.95;99.25;100675.28;5246867;28;20062;-81
2021/01/03 01:27:27;;;;;;;20.73;11.00;;;;;;;2.95;99.63;100678.75;5246328;28;20050;-81
2021/01/03 01:29:57;;;;;;;24.48;12.45;;;;;;;2.95;99.96;100670.13;5234082;28;20032;-81
2021/01/03 01:32:27;;;;;;;25.05;12.32;;;;;;;3.01;100.00;100672.69;5234907;28;20028;-81
2021/01/03 01:34:57;;;;;;;25.40;13.10;;;;;;;2.94;100.00;100665.81;5242194;28;21009;-81
2021/01/03 01:37:28;;;;;;;26.13;13.65;;;;;;;2.91;100.00;100671.88;5245100;28;20028;-81
2021/01/03 01:39:58;;;;;;;24.15;13.90;;;;;;;2.92;100.00;100664.97;5251336;28;20028;-81
2021/01/03 01:42:28;;;;;;;29.02;14.75;;;;;;;2.95;100.00;100662.38;5242687;28;20024;-81
2021/01/03 01:45:00;;;;;;;26.67;14.90;;;;;;;2.90;100.00;100659.84;5246264;28;20478;-81
2021/01/03 01:47:34;;;;;;;30.85;15.27;;;;;;;2.91;100.00;100652.94;5247225;28;20237;-81
2021/01/03 01:50:08;;;;;;;31.15;15.55;;;;;;;2.94;100.00;100645.19;5247738;28;20040;-81
2021/01/03 01:52:44;;;;;;;30.77;15.73;;;;;;;2.97;100.00;100632.25;5246036;28;20025;-81
2021/01/03 01:55:21;;;;;;;30.55;16.58;;;;;;;2.86;100.00;100631.47;5245487;28;20020;-81
2021/01/03 01:58:20;;;;;;;32.47;17.20;;;;;;;2.89;100.00;100623.72;5246629;28;20039;-81
2021/01/03 02:00:58;;;;;;;33.25;16.40;;;;;;;2.88;100.00;100622.00;5246836;28;20490;-81
2021/01/03 02:04:00;;;;;;;34.97;16.98;;;;;;;2.90;100.00;100622.84;5245122;28;20052;-81
2021/01/03 02:06:39;;;;;;;29.25;15.57;;;;;;;2.86;100.00;100621.97;5249484;28;20027;-81
2021/01/03 02:09:17;;;;;;;29.45;15.45;;;;;;;2.86;100.00;100621.16;5245334;28;20030;-81
2021/01/03 02:11:48;;;;;;;30.00;15.40;;;;;;;2.94;100.00;100616.78;5241075;28;20091;-81
2021/01/03 02:14:18;;;;;;;29.33;15.70;;;;;;;2.97;100.00;100617.66;5242032;28;20103;-81
2021/01/03 02:16:48;;;;;;;31.15;15.80;;;;;;;2.90;100.00;100622.84;5246104;28;20016;-81
2021/01/03 02:19:20;;;;;;;29.33;15.00;;;;;;;2.91;100.00;100627.13;5239581;28;20028;-81
2021/01/03 02:22:02;;;;;;;27.55;15.50;;;;;;;2.84;100.00;100625.47;5239199;28;20018;-81
2021/01/03 02:24:44;;;;;;;29.30;15.25;;;;;;;2.79;100.00;100624.59;5243361;28;20039;-81
2021/01/03 02:27:39;;;;;;;28.05;15.43;;;;;;;2.79;100.00;100629.75;5242274;28;20021;-81
2021/01/03 02:30:10;;;;;;;30.73;15.85;;;;;;;2.79;100.00;100640.94;5241390;28;20020;-81
2021/01/03 02:32:47;;;;;;;29.75;15.70;;;;;;;2.86;100.00;100634.88;5239329;28;20027;-83
2021/01/03 02:35:19;;;;;;;29.08;15.68;;;;;;;2.85;100.00;100638.34;5240502;28;20016;-80
2021/01/03 02:37:52;;;;;;;30.90;16.13;;;;;;;2.92;100.00;100628.84;5238051;28;20640;-82
2021/01/03 02:40:24;;;;;;;31.20;16.25;;;;;;;2.89;100.00;100634.03;5243591;28;20037;-81
2021/01/03 02:42:55;;;;;;;30.70;15.48;;;;;;;2.87;100.00;100633.19;5242501;28;20059;-81
2021/01/03 02:45:28;;;;;;;29.55;15.45;;;;;;;2.83;100.00;100628.91;5241689;28;20068;-82
2021/01/03 02:48:16;;;;;;;30.52;16.40;;;;;;;2.73;100.00;100633.25;5241019;28;20429;-81
2021/01/03 02:50:47;;;;;;;29.33;15.38;;;;;;;2.75;100.00;100633.22;5239549;28;20024;-83
2021/01/03 02:53:19;;;;;;;34.30;16.65;;;;;;;2.73;100.00;100627.22;5244291;28;20745;-80
2021/01/03 02:55:49;;;;;;;31.52;15.82;;;;;;;2.71;100.00;100623.78;5239755;28;20107;-81
2021/01/03 02:58:19;;;;;;;33.38;16.92;;;;;;;2.72;100.00;100626.34;5242369;28;20080;-81
2021/01/03 03:00:51;;;;;;;33.72;17.33;;;;;;;2.74;100.00;100628.91;5240859;28;20028;-78
2021/01/03 03:03:21;;;;;;;36.17;17.85;;;;;;;2.72;100.00;100631.50;5239368;28;20024;-82
2021/01/03 03:05:51;;;;;;;32.22;17.08;;;;;;;2.79;100.00;100624.59;5238103;28;20098;-81
2021/01/03 03:08:23;;;;;;;32.33;16.73;;;;;;;2.74;100.00;100627.22;5237723;28;20054;-82
2021/01/03 03:10:53;;;;;;;32.28;17.08;;;;;;;2.74;100.00;100628.91;5247379;28;20050;-82
2021/01/03 03:13:23;;;;;;;33.25;16.73;;;;;;;2.78;100.00;100628.03;5243083;28;20175;-82
2021/01/03 03:15:53;;;;;;;35.80;16.67;;;;;;;2.71;100.00;100623.78;5239717;28;20013;-82
2021/01/03 03:18:24;;;;;;;30.60;16.58;;;;;;;2.68;100.00;100628.94;5241686;28;20029;-79
2021/01/03 03:20:54;;;;;;;34.35;17.52;;;;;;;2.72;100.00;100625.50;5234645;28;20471;-81
2021/01/03 03:23:24;;;;;;;30.88;16.33;;;;;;;2.74;100.00;100623.75;5238432;28;20679;-82
2021/01/03 03:25:54;;;;;;;33.13;17.33;;;;;;;2.73;100.00;100622.03;5235692;28;20026;-85
2021/01/03 03:28:25;;;;;;;29.83;15.25;;;;;;;2.79;100.00;100625.47;5242834;28;20051;-81
2021/01/03 03:30:55;;;;;;;29.73;15.80;;;;;;;2.77;100.00;100631.47;5239079;28;20046;-81
2021/01/03 03:33:25;;;;;;;29.38;15.18;;;;;;;2.82;100.00;100622.03;5245398;28;20024;-81
2021/01/03 03:35:55;;;;;;;33.58;15.40;;;;;;;2.77;100.00;100616.88;5238884;28;20024;-81
2021/01/03 03:38:26;;;;;;;32.08;15.85;;;;;;;2.72;100.00;100610.00;5238836;28;20379;-81
2021/01/03 03:40:56;;;;;;;26.67;14.85;;;;;;;2.83;100.00;100618.59;5243923;28;20093;-81
2021/01/03 03:43:26;;;;;;;33.08;15.80;;;;;;;2.74;100.00;100614.31;5240095;28;20021;-81
2021/01/03 03:45:56;;;;;;;28.23;14.88;;;;;;;2.82;100.00;100602.22;5241446;28;20029;-81
2021/01/03 03:48:27;;;;;;;28.73;15.05;;;;;;;2.74;100.00;100616.03;5247549;28;20364;-81
2021/01/03 03:50:57;;;;;;;28.75;14.90;;;;;;;2.84;100.00;100610.81;5234690;28;20021;-81
2021/01/03 03:53:27;;;;;;;28.85;14.55;;;;;;;2.78;100.00;100618.59;5233221;28;20036;-81
2021/01/03 03:55:57;;;;;;;27.33;14.95;;;;;;;2.76;100.00;100619.44;5238598;28;20052;-81
2021/01/03 03:58:28;;;;;;;26.05;14.07;;;;;;;2.86;100.00;100614.25;5235210;28;20025;-81
2021/01/03 04:00:58;;;;;;;29.80;14.60;;;;;;;2.79;100.00;100616.84;5234287;28;20028;-81
2021/01/03 04:03:28;;;;;;;27.17;14.85;;;;;;;2.82;100.00;100611.72;5236809;28;20028;-81
2021/01/03 04:05:59;;;;;;;25.13;13.43;;;;;;;2.77;100.00;100618.59;5229464;28;20021;-81
2021/01/03 04:08:30;;;;;;;25.23;13.68;;;;;;;2.74;100.00;100610.88;5235205;28;20024;-81
2021/01/03 04:11:00;;;;;;;28.58;14.68;;;;;;;2.73;100.00;100617.75;5239557;28;20024;-80
2021/01/03 04:13:31;;;;;;;26.63;13.32;;;;;;;2.77;100.00;100606.56;5234791;28;20068;-81
2021/01/03 04:16:06;;;;;;;26.00;12.40;;;;;;;2.85;100.00;100611.69;5235786;28;20024;-80
2021/01/03 04:18:36;;;;;;;;;;;;;;;2.73;100.00;100611.72;5234229;28;20399;-81
2021/01/03 04:21:09;;;;;;;25.93;12.67;;;;;;;2.72;100.00;100615.16;5231136;28;19916;-81
2021/01/03 04:23:41;;;;;;;24.88;12.98;;;;;;;2.71;100.00;100621.19;5232704;28;20282;-80
2021/01/03 04:26:21;;;;;;;22.35;12.48;;;;;;;2.67;100.00;100617.75;5232971;28;20028;-80
2021/01/03 04:28:52;;;;;;;24.75;12.45;;;;;;;2.79;100.00;100609.13;5236737;28;20102;-81
2021/01/03 04:31:22;;;;;;;23.63;12.60;;;;;;;2.74;100.00;100618.59;5232381;28;20024;-80
2021/01/03 04:33:52;;;;;;;21.70;12.35;;;;;;;2.69;100.00;100616.03;5231681;28;20020;-81
2021/01/03 04:36:23;;;;;;;21.48;11.85;;;;;;;2.73;100.00;100610.03;5238750;28;20104;-81
2021/01/03 04:38:53;;;;;;;27.02;13.10;;;;;;;2.73;100.00;100619.47;5238117;28;20028;-80
2021/01/03 04:41:26;;;;;;;26.58;12.93;;;;;;;2.70;100.00;100619.47;5240016;28;20036;-81
2021/01/03 04:44:02;;;;;;;24.15;13.02;;;;;;;2.70;100.00;100612.59;5240192;28;20031;-81
2021/01/03 04:46:37;;;;;;;24.95;13.00;;;;;;;2.72;100.00;100610.00;5231092;28;20038;-81
2021/01/03 04:49:20;;;;;;;24.70;12.80;;;;;;;2.69;100.00;100620.34;5239959;28;20303;-80
2021/01/03 04:52:28;;;;;;;26.77;12.95;;;;;;;2.72;100.00;100615.16;5238567;28;20028;-81
2021/01/03 04:55:09;;;;;;;23.92;12.60;;;;;;;2.67;100.00;100612.59;5238055;28;20035;-81
2021/01/03 04:57:51;;;;;;;23.40;13.00;;;;;;;2.65;100.00;100613.50;5237511;28;20028;-81
2021/01/03 05:00:32;;;;;;;24.60;13.55;;;;;;;2.66;100.00;100615.19;5239839;28;20486;-80
2021/01/03 05:03:41;;;;;;;26.17;13.30;;;;;;;2.61;100.00;100622.06;5236388;28;20024;-81
2021/01/03 05:06:24;;;;;;;24.88;12.35;;;;;;;2.66;100.00;100608.31;5240597;28;20032;-81
2021/01/03 05:08:58;;;;;;;23.75;13.00;;;;;;;2.71;100.00;100618.63;5244319;28;20024;-81
2021/01/03 05:12:01;;;;;;;21.42;12.50;;;;;;;2.66;100.00;100616.03;5236014;28;20043;-81
2021/01/03 05:14:37;;;;;;;23.63;12.85;;;;;;;2.73;100.00;100615.19;5237731;28;20021;-81
2021/01/03 05:17:07;;;;;;;25.30;12.80;;;;;;;2.66;100.00;100613.47;5234797;28;20523;-81
2021/01/03 05:19:37;;;;;;;25.02;12.63;;;;;;;2.64;100.00;100615.19;5232078;28;20151;-81
2021/01/03 05:22:08;;;;;;;21.83;12.82;;;;;;;2.62;100.00;100613.47;5236274;28;20111;-81
2021/01/03 05:24:45;;;;;;;27.98;13.35;;;;;;;2.66;100.00;100605.72;5239643;28;20040;-81
2021/01/03 05:27:19;;;;;;;24.77;12.88;;;;;;;2.67;100.00;100606.59;5246361;28;20036;-81
2021/01/03 05:29:49;;;;;;;24.67;13.10;;;;;;;2.62;100.00;100611.78;5244026;28;20020;-80
2021/01/03 05:32:32;;;;;;;26.33;12.63;;;;;;;2.64;100.00;100611.75;5245478;28;20703;-80
2021/01/03 05:35:15;;;;;;;24.33;12.23;;;;;;;2.68;100.00;100606.56;5246199;28;20024;-81
2021/01/03 05:37:47;;;;;;;21.80;11.40;;;;;;;2.74;100.00;100603.13;5248478;28;20466;-81
2021/01/03 05:40:24;;;;;;;26.10;12.45;;;;;;;2.66;100.00;100604.88;5252041;28;20028;-81
2021/01/03 05:43:06;;;;;;;24.50;11.85;;;;;;;2.72;100.00;100599.69;5249486;28;20027;-81
2021/01/03 05:45:44;;;;;;;23.73;12.77;;;;;;;2.68;100.00;100598.00;5242727;28;20029;-81
2021/01/03 05:48:22;;;;;;;24.27;11.25;;;;;;;2.82;100.00;100593.66;5241052;28;20022;-81
2021/01/03 05:50:53;;;;;;;22.17;11.90;;;;;;;2.78;100.00;100602.25;5240685;28;20029;-81
2021/01/03 05:53:27;;;;;;;26.58;12.40;;;;;;;2.66;100.00;100604.88;5241938;28;20487;-80
2021/01/03 05:56:01;;;;;;;21.65;12.30;;;;;;;2.61;100.00;100602.31;5244332;28;20024;-81
2021/01/03 05:58:36;;;;;;;24.95;13.02;;;;;;;2.63;100.00;100610.03;5240650;28;20024;-81
2021/01/03 06:01:17;;;;;;;22.33;11.70;;;;;;;2.73;100.00;100601.41;5243252;28;20121;-81
2021/01/03 06:04:06;;;;;;;22.75;11.82;;;;;;;2.66;100.00;100610.03;5242225;28;20020;-81
2021/01/03 06:06:42;;;;;;;20.48;11.40;;;;;;;2.75;100.00;100612.56;5244902;28;20032;-81
2021/01/03 06:09:15;;;;;;;21.85;11.55;;;;;;;2.67;100.00;100609.19;5240732;28;20053;-81
2021/01/03 06:12:06;;;;;;;25.67;11.88;;;;;;;2.66;100.00;100610.88;5242099;28;20021;-81
2021/01/03 06:14:36;;;;;;;26.45;12.40;;;;;;;2.70;100.00;100619.47;5242764;28;20023;-81
2021/01/03 06:17:33;;;;;;;24.77;12.38;;;;;;;2.68;100.00;100613.47;5241886;28;20107;-81
2021/01/03 06:20:18;;;;;;;23.90;12.07;;;;;;;2.80;100.00;100605.66;5239939;28;20024;-81
2021/01/03 06:22:57;;;;;;;23.25;10.63;;;;;;;2.88;99.79;100599.59;5238331;28;20090;-81
2021/01/03 06:25:30;;;;;;;20.70;10.88;;;;;;;3.03;99.34;100606.44;5244232;28;20020;-81
2021/01/03 06:28:36;;;;;;;22.23;10.65;;;;;;;2.86;99.22;100609.09;5248069;28;20031;-81
2021/01/03 06:31:42;;;;;;;22.20;10.32;;;;;;;2.94;98.87;100606.47;5249257;28;20032;-81
2021/01/03 06:34:29;;;;;;;20.77;10.88;;;;;;;2.85;99.52;100616.84;5240505;28;20029;-81
2021/01/03 06:37:11;;;;;;;26.13;11.93;;;;;;;2.74;99.93;100616.91;5248470;28;20655;-81
2021/01/03 06:39:53;;;;;;;20.50;10.98;;;;;;;2.81;100.00;100620.28;5255906;28;20558;-81
2021/01/03 06:42:36;;;;;;;19.90;10.93;;;;;;;2.82;99.62;100616.88;5248165;28;20032;-81
2021/01/03 06:45:28;;;;;;;24.80;10.98;;;;;;;3.02;98.69;100612.47;5247173;28;20418;-81
2021/01/03 06:48:27;;;;;;;20.60;10.48;;;;;;;2.79;99.50;100616.84;5245191;28;20039;-80
2021/01/03 06:51:34;;;;;;;20.52;10.60;;;;;;;2.82;99.54;100616.88;5248510;28;20024;-81
2021/01/03 06:54:42;;;;;;;20.27;10.18;;;;;;;2.87;99.33;100612.53;5248944;28;20025;-81
2021/01/03 06:57:18;;;;;;;24.02;11.15;;;;;;;2.83;100.00;100600.53;5247913;28;20506;-81
2021/01/03 07:00:14;;;;;;;22.25;10.65;;;;;;;2.84;99.71;100599.66;5249891;28;20044;-81
2021/01/03 07:03:00;;;;;;;26.80;10.70;;;;;;;2.83;98.99;100600.53;5248246;28;20093;-81
2021/01/03 07:05:30;;;;;;;19.65;10.23;;;;;;;2.90;98.80;100597.91;5249244;28;20039;-81
2021/01/03 07:08:09;;;;;;;18.23;9.50;;;;;;;2.84;98.77;100599.66;5248309;28;20029;-81
2021/01/03 07:10:42;;;;;;;16.85;9.25;;;;;;;2.88;98.12;100596.19;5253735;28;20119;-81
2021/01/03 07:13:25;;;;;;;18.25;9.48;;;;;;;2.81;98.20;100605.66;5246918;28;20029;-80
2021/01/03 07:15:58;;;;;;;19.38;9.20;;;;;;;2.89;98.39;100597.91;5247310;28;20012;-81
2021/01/03 07:18:28;;;;;;;19.35;8.75;;;;;;;2.93;98.39;100589.28;5246622;28;20024;-81
2021/01/03 07:21:03;;;;;;;17.73;9.40;;;;;;;2.94;97.52;100593.56;5246683;28;20463;-81
2021/01/03 07:23:39;;;;;;;17.17;9.05;;;;;;;2.94;97.46;100591.00;5244591;28;20740;-81
2021/01/03 07:26:31;;;;;;;17.55;8.82;;;;;;;2.86;97.37;100587.59;5249342;28;20074;-81
2021/01/03 07:29:12;;;;;;;17.70;8.80;;;;;;;2.87;97.58;100589.31;5248513;28;20052;-81
2021/01/03 07:32:15;;;;;;;18.13;9.18;;;;;;;2.90;97.59;100585.00;5244386;28;20063;-80
2021/01/03 07:34:50;;;;;;;16.77;7.90;;;;;;;2.98;97.54;100597.84;5230932;28;20491;-81
2021/01/03 07:37:29;;;;;;;16.30;9.18;;;;;;;3.00;97.13;100591.81;5240113;28;20103;-81
2021/01/03 07:40:14;;;;;;;17.88;9.55;;;;;;;2.99;97.33;100592.69;5242815;28;20037;-81
2021/01/03 07:42:44;;;;;;;18.30;9.35;;;;;;;2.97;97.24;100590.97;5239552;28;20021;-81
2021/01/03 07:45:14;;;;;;;19.57;8.97;;;;;;;2.93;98.20;100599.59;5239400;28;20090;-81
2021/01/03 07:47:47;;;;;;;18.70;9.20;;;;;;;2.94;98.01;100593.56;5245838;28;20320;-81
2021/01/03 07:50:17;;;;;;;17.33;9.23;;;;;;;2.91;98.62;100596.16;5249053;28;20271;-81
2021/01/03 07:52:49;;;;;;;18.25;9.55;;;;;;;2.98;98.65;100588.38;5247435;28;20023;-81
2021/01/03 07:55:22;;;;;;;19.73;9.98;;;;;;;3.08;98.08;100597.81;5249106;28;20039;-81
2021/01/03 07:58:00;;;;;;;21.05;11.10;;;;;;;2.87;98.54;100594.47;5247566;28;20554;-81
2021/01/03 08:00:35;;;;;;;23.00;10.57;;;;;;;2.92;99.30;100595.31;5248030;28;20032;-81
2021/01/03 08:03:09;;;;;;;20.95;10.48;;;;;;;3.00;99.88;100590.97;5247496;28;20028;-81
2021/01/03 08:05:41;;;;;;;22.25;11.45;;;;;;;2.88;100.00;100593.59;5247881;28;20020;-81
2021/01/03 08:08:17;;;;;;;20.98;10.82;;;;;;;2.96;100.00;100589.25;5248686;28;20021;-81
2021/01/03 08:10:50;;;;;;;22.67;11.95;;;;;;;2.97;100.00;100596.13;5253487;28;20507;-81
2021/01/03 08:13:26;;;;;;;22.85;11.82;;;;;;;3.00;100.00;100601.31;5246282;28;20025;-81
2021/01/03 08:15:58;;;;;;;23.65;12.07;;;;;;;2.80;100.00;100600.50;5242827;28;20027;-81
2021/01/03 08:18:34;;;;;;;27.73;12.32;;;;;;;2.80;100.00;100597.94;5244312;28;20513;-81
2021/01/03 08:21:15;;;;;;;26.73;13.27;;;;;;;2.68;100.00;100609.16;5244211;28;20501;-81
2021/01/03 08:23:46;;;;;;;28.95;14.35;;;;;;;2.78;100.00;100597.94;5245686;28;20020;-81
2021/01/03 08:26:25;;;;;;;29.20;12.77;;;;;;;2.80;100.00;100603.97;5245308;28;20028;-81
2021/01/03 08:28:58;;;;;;;30.23;14.18;;;;;;;2.62;100.00;100603.16;5246654;28;20529;-81
2021/01/03 08:31:30;;;;;;;34.80;15.25;;;;;;;2.57;100.00;100610.94;5238572;28;20303;-80
2021/01/03 08:34:01;;;;;;;36.65;14.77;;;;;;;2.58;100.00;100609.19;5244457;28;20110;-81
2021/01/03 08:36:34;;;;;;;37.08;15.45;;;;;;;2.59;100.00;100606.63;5240994;28;20104;-81
2021/01/03 08:39:11;;;;;;;37.38;15.18;;;;;;;2.55;100.00;100604.06;5247210;28;20112;-81
2021/01/03 08:41:54;;;;;;;38.58;15.30;;;;;;;2.51;100.00;100605.78;5249087;28;20020;-81
2021/01/03 08:44:27;;;;;;;45.42;15.95;;;;;;;2.65;100.00;100593.69;5244860;28;20028;-81
2021/01/03 08:47:05;;;;;;;45.85;17.42;;;;;;;2.48;100.00;100599.78;5246863;28;20032;-80
2021/01/03 08:49:35;;;;;;;44.80;16.92;;;;;;;2.42;100.00;100610.09;5244369;28;20077;-80
2021/01/03 08:52:05;;;;;;;48.25;16.55;;;;;;;2.39;100.00;100594.63;5241632;28;20687;-81
2021/01/03 08:54:36;;;;;;;49.35;17.85;;;;;;;2.51;100.00;100604.94;5244885;28;20025;-81
2021/01/03 08:57:06;;;;;;;52.22;17.80;;;;;;;2.42;100.00;100604.94;5243776;28;20017;-81
2021/01/03 08:59:36;;;;;;;54.08;18.63;;;;;;;2.39;100.00;100599.78;5238310;28;20036;-81
2021/01/03 09:02:24;;;;;;;52.28;19.02;;;;;;;2.43;100.00;100604.94;5240419;28;20036;-81
2021/01/03 09:04:59;;;;;;;50.88;17.45;;;;;;;2.51;100.00;100604.94;5237684;28;20488;-81
2021/01/03 09:07:36;;;;;;;51.33;18.55;;;;;;;2.48;100.00;100604.94;5242034;28;20024;-81
2021/01/03 09:10:08;;;;;;;51.55;18.08;;;;;;;2.62;100.00;100606.59;5248040;28;20032;-81
2021/01/03 09:12:41;;;;;;;57.75;20.50;;;;;;;2.43;100.00;100601.50;5242555;28;20025;-80
2021/01/03 09:15:21;;;;;;;59.03;20.30;;;;;;;2.35;100.00;100604.09;5240070;28;20017;-81
2021/01/03 09:18:28;;;;;;;61.05;20.63;;;;;;;2.44;100.00;100613.53;5240346;28;20079;-81
2021/01/03 09:21:06;;;;;;;66.05;20.35;;;;;;;2.47;100.00;100608.38;5243819;28;20028;-81
2021/01/03 09:23:39;;;;;;;66.55;22.48;;;;;;;2.55;100.00;100612.66;5243490;28;20406;-81
2021/01/03 09:26:10;;;;;;;62.63;21.67;;;;;;;2.42;100.00;100604.94;5233023;28;20076;-81
2021/01/03 09:28:42;;;;;;;66.47;21.23;;;;;;;2.46;100.00;100609.22;5241291;28;20028;-81
2021/01/03 09:31:31;;;;;;;63.30;21.33;;;;;;;2.48;100.00;100610.94;5252276;28;20028;-81
2021/01/03 09:34:15;;;;;;;58.90;21.10;;;;;;;2.47;100.00;100601.50;5250819;28;20100;-81
2021/01/03 09:36:56;;;;;;;61.25;21.33;;;;;;;2.45;100.00;100604.94;5251004;28;20021;-80
2021/01/03 09:39:40;;;;;;;58.05;20.50;;;;;;;2.35;100.00;100603.25;5256918;28;20024;-81
2021/01/03 09:42:30;;;;;;;69.53;21.42;;;;;;;2.48;100.00;100604.94;5244186;28;20382;-81
2021/01/03 09:45:24;;;;;;;62.28;21.17;;;;;;;2.47;100.00;100598.91;5248959;28;20016;-80
2021/01/03 09:47:55;;;;;;;58.25;18.80;;;;;;;2.51;100.00;100592.03;5251227;28;20387;-80
2021/01/03 09:50:29;;;;;;;56.42;18.35;;;;;;;2.61;100.00;100596.28;5251046;28;20016;-81
2021/01/03 09:53:23;;;;;;;61.20;20.50;;;;;;;2.50;100.00;100582.59;5250072;28;20116;-80
2021/01/03 09:55:57;;;;;;;53.88;18.58;;;;;;;2.53;100.00;100588.56;5251207;28;20017;-80
2021/01/03 09:58:39;;;;;;;57.72;18.65;;;;;;;2.56;100.00;100586.00;5251313;28;20060;-80
2021/01/03 10:01:31;;;;;;;54.33;18.15;;;;;;;2.58;100.00;100580.81;5247310;28;20033;-80
2021/01/03 10:04:23;;;;;;;53.50;19.08;;;;;;;2.45;100.00;100581.72;5239882;28;20060;-80
2021/01/03 10:07:07;;;;;;;47.45;17.48;;;;;;;2.54;100.00;100579.97;5240435;28;20024;-80
2021/01/03 10:09:37;;;;;;;48.90;17.98;;;;;;;2.63;100.00;100573.91;5238801;28;20084;-80
2021/01/03 10:12:40;;;;;;;44.33;17.17;;;;;;;2.55;100.00;100573.97;5242431;28;20083;-80
2021/01/03 10:15:15;;;;;;;48.58;16.48;;;;;;;2.58;100.00;100567.94;5196931;28;20570;-80
2021/01/03 10:18:01;;;;;;;48.83;16.65;;;;;;;2.56;100.00;100564.50;5236764;28;20032;-80
2021/01/03 10:20:50;;;;;;;44.00;16.40;;;;;;;2.50;100.00;100567.13;5240131;28;20490;-80
2021/01/03 10:23:40;;;;;;;39.45;14.63;;;;;;;2.50;100.00;100569.69;5239208;28;20040;-81
2021/01/03 10:26:20;;;;;;;40.45;15.27;;;;;;;2.50;100.00;100561.97;5239152;28;20517;-80
2021/01/03 10:28:51;;;;;;;40.40;14.35;;;;;;;2.58;100.00;100555.91;5238932;28;20032;-80
2021/01/03 10:31:36;;;;;;;44.55;15.60;;;;;;;2.40;100.00;100560.25;5244595;28;20104;-80
2021/01/03 10:34:07;;;;;;;25.42;10.27;;;;;;;2.39;100.00;100549.09;5244673;28;20020;-80
2021/01/03 10:36:37;;;;;;;36.38;14.43;;;;;;;2.41;100.00;100551.66;5240866;28;20617;-80
2021/01/03 10:39:11;;;;;;;32.03;13.93;;;;;;;2.34;100.00;100555.97;5244986;28;20096;-80
2021/01/03 10:41:42;;;;;;;37.10;14.63;;;;;;;2.49;100.00;100549.94;5245292;28;20558;-80
2021/01/03 10:44:13;;;;;;;28.52;12.25;;;;;;;2.48;100.00;100543.91;5241911;28;20029;-79
2021/01/03 10:46:46;;;;;;;28.67;12.65;;;;;;;2.46;100.00;100552.50;5236259;28;20704;-79
2021/01/03 10:49:17;;;;;;;28.27;12.35;;;;;;;2.48;100.00;100543.91;5232792;28;20028;-79
2021/01/03 10:51:48;;;;;;;30.20;12.43;;;;;;;2.43;100.00;100553.38;5233292;28;20557;-79
2021/01/03 10:54:24;;;;;;;28.58;11.98;;;;;;;2.35;100.00;100547.38;5230620;28;20020;-79
2021/01/03 10:56:57;;;;;;;29.00;12.07;;;;;;;2.38;100.00;100551.66;5235996;28;20603;-80
2021/01/03 10:59:27;;;;;;;28.83;12.40;;;;;;;2.29;100.00;100531.94;5230905;28;20139;-80
2021/01/03 11:01:57;;;;;;;30.38;12.45;;;;;;;2.36;100.00;100530.19;5231714;28;20100;-80
2021/01/03 11:04:28;;;;;;;26.98;12.20;;;;;;;2.53;100.00;100531.00;5230236;28;20025;-80
2021/01/03 11:06:58;;;;;;;34.10;13.23;;;;;;;2.48;100.00;100538.75;5237776;28;20035;-80
2021/01/03 11:09:32;;;;;;;31.48;12.32;;;;;;;2.42;100.00;100532.75;5250776;28;20032;-79
2021/01/03 11:12:04;;;;;;;28.20;11.88;;;;;;;2.25;100.00;100539.69;5236790;28;20063;-80
2021/01/03 11:14:35;;;;;;;24.63;12.18;;;;;;;2.42;100.00;100523.31;5233020;28;20036;-80
2021/01/03 11:17:10;;;;;;;30.85;13.48;;;;;;;2.31;100.00;100529.38;5236331;28;20510;-80
2021/01/03 11:19:41;;;;;;;27.05;11.85;;;;;;;2.36;100.00;100519.88;5240554;28;20040;-79
2021/01/03 11:22:14;;;;;;;28.27;12.20;;;;;;;2.29;100.00;100515.59;5249633;28;20453;-79
2021/01/03 11:24:45;;;;;;;28.88;12.50;;;;;;;2.21;100.00;100523.38;5239979;28;20032;-79
2021/01/03 11:27:18;;;;;;;26.67;12.40;;;;;;;2.24;100.00;100517.34;5238527;28;20039;-79
2021/01/03 11:29:52;;;;;;;32.88;13.52;;;;;;;2.15;100.00;100514.81;5244299;28;20017;-79
2021/01/03 11:32:27;;;;;;;28.45;12.75;;;;;;;2.26;100.00;100511.31;5238436;28;20037;-80
2021/01/03 11:34:57;;;;;;;28.52;13.45;;;;;;;2.23;100.00;100505.31;5239806;28;20028;-79
2021/01/03 11:37:29;;;;;;;29.25;12.90;;;;;;;2.29;100.00;100508.72;5235970;28;20040;-79
2021/01/03 11:39:59;;;;;;;29.98;12.23;;;;;;;2.30;100.00;100507.88;5244529;28;20528;-79
2021/01/03 11:42:33;;;;;;;30.02;12.60;;;;;;;2.36;100.00;100494.94;5236723;28;20036;-79
2021/01/03 11:45:09;;;;;;;29.95;12.65;;;;;;;2.31;100.00;100504.44;5238866;28;20035;-79
2021/01/03 11:47:39;;;;;;;31.00;13.55;;;;;;;2.31;100.00;100503.59;5231500;28;20121;-79
2021/01/03 11:50:13;;;;;;;29.35;12.73;;;;;;;2.26;100.00;100501.00;5240837;28;20075;-79
2021/01/03 11:52:43;;;;;;;29.42;13.27;;;;;;;2.25;100.00;100501.88;5233093;28;20032;-79
2021/01/03 11:55:17;;;;;;;29.50;13.43;;;;;;;2.30;100.00;100504.44;5240657;28;20028;-78